createdAt,value
2018-01-27T00:02:01.680Z,91.50
2018-01-27T00:04:28.337Z,91.60
2018-01-27T00:06:55.301Z,91.70
2018-01-27T00:09:21.898Z,91.70
2018-01-27T00:11:48.462Z,91.60
2018-01-27T00:14:15.053Z,91.00
2018-01-27T00:16:41.724Z,90.40
2018-01-27T00:19:09.152Z,90.80
2018-01-27T00:21:37.814Z,91.30
2018-01-27T00:24:06.904Z,91.80
2018-01-27T00:26:35.292Z,92.10
2018-01-27T00:29:02.680Z,92.00
2018-01-27T00:31:29.981Z,92.10
2018-01-27T00:33:56.968Z,92.20
2018-01-27T00:36:23.572Z,92.20
2018-01-27T00:38:50.149Z,92.20
2018-01-27T00:41:16.717Z,92.20
2018-01-27T00:43:43.757Z,92.30
2018-01-27T00:46:10.904Z,92.20
2018-01-27T00:48:38.744Z,92.20
2018-01-27T00:51:05.939Z,92.20
2018-01-27T00:53:34.963Z,92.30
2018-01-27T00:56:05.024Z,92.30
2018-01-27T00:58:38.353Z,92.40
2018-01-27T01:01:09.260Z,92.40
2018-01-27T01:03:38.342Z,91.70
2018-01-27T01:06:08.479Z,91.70
2018-01-27T01:08:39.361Z,91.50
2018-01-27T01:11:08.944Z,91.60
2018-01-27T01:13:40.182Z,91.70
2018-01-27T01:16:09.586Z,91.80
2018-01-27T01:18:38.758Z,91.90
2018-01-27T01:21:09.998Z,92.00
2018-01-27T01:23:37.716Z,92.00
2018-01-27T01:26:06.024Z,92.20
2018-01-27T01:28:36.970Z,92.10
2018-01-27T01:31:07.579Z,92.40
2018-01-27T01:33:37.377Z,92.60
2018-01-27T01:36:08.429Z,92.60
2018-01-27T01:38:37.771Z,92.60
2018-01-27T01:41:07.184Z,92.60
2018-01-27T01:43:44.471Z,92.40
2018-01-27T01:46:11.445Z,92.40
2018-01-27T01:48:39.446Z,92.90
2018-01-27T01:51:09.039Z,92.90
2018-01-27T01:53:39.669Z,92.90
2018-01-27T01:56:06.865Z,92.90
2018-01-27T01:58:36.266Z,93.10
2018-01-27T02:01:08.290Z,93.10
2018-01-27T02:03:38.547Z,93.00
2018-01-27T02:06:11.884Z,93.60
2018-01-27T02:08:40.325Z,93.50
2018-01-27T02:11:09.404Z,93.30
2018-01-27T02:13:37.558Z,93.30
2018-01-27T02:16:08.764Z,93.20
2018-01-27T02:18:38.256Z,93.20
2018-01-27T02:21:09.851Z,93.10
2018-01-27T02:23:40.489Z,92.50
2018-01-27T02:26:09.281Z,92.20
2018-01-27T02:28:41.326Z,92.00
2018-01-27T02:31:09.505Z,92.40
2018-01-27T02:33:39.432Z,92.30
2018-01-27T02:36:11.602Z,92.20
2018-01-27T02:38:39.444Z,92.00
2018-01-27T02:41:10.370Z,92.00
2018-01-27T02:43:39.597Z,91.20
2018-01-27T02:46:09.808Z,92.20
2018-01-27T02:48:40.106Z,92.20
2018-01-27T02:51:09.705Z,92.50
2018-01-27T02:53:38.965Z,92.80
2018-01-27T02:56:08.791Z,92.80
2018-01-27T02:58:41.325Z,93.00
2018-01-27T03:01:11.515Z,93.10
2018-01-27T03:03:40.005Z,93.20
2018-01-27T03:06:09.525Z,93.20
2018-01-27T03:08:40.576Z,93.20
2018-01-27T03:11:10.101Z,93.20
2018-01-27T03:13:38.516Z,93.40
2018-01-27T03:16:07.712Z,93.40
2018-01-27T03:18:38.492Z,93.40
2018-01-27T03:21:11.826Z,93.40
2018-01-27T03:23:40.856Z,93.40
2018-01-27T03:26:08.772Z,92.80
2018-01-27T03:28:38.158Z,92.70
2018-01-27T03:31:07.102Z,92.70
2018-01-27T03:33:37.682Z,93.20
2018-01-27T03:36:06.395Z,93.60
2018-01-27T03:38:36.373Z,93.70
2018-01-27T03:41:06.627Z,94.00
2018-01-27T03:43:33.970Z,94.00
2018-01-27T03:46:02.435Z,93.90
2018-01-27T03:48:29.045Z,93.90
2018-01-27T03:50:55.612Z,93.70
2018-01-27T03:53:22.144Z,93.30
2018-01-27T03:55:48.797Z,93.20
2018-01-27T03:58:15.548Z,93.00
2018-01-27T04:00:43.087Z,92.70
2018-01-27T04:03:12.592Z,92.70
2018-01-27T04:05:42.457Z,92.20
2018-01-27T04:08:12.554Z,91.80
2018-01-27T04:10:42.760Z,92.00
2018-01-27T04:13:12.305Z,92.30
2018-01-27T04:15:42.441Z,92.60
2018-01-27T04:18:11.865Z,92.40
2018-01-27T04:20:41.836Z,92.30
2018-01-27T04:23:13.004Z,92.90
2018-01-27T04:25:42.651Z,92.90
2018-01-27T04:28:12.385Z,92.60
2018-01-27T04:30:42.448Z,92.60
2018-01-27T04:33:11.577Z,92.50
2018-01-27T04:35:41.623Z,92.80
2018-01-27T04:38:10.733Z,92.80
2018-01-27T04:40:42.596Z,92.80
2018-01-27T04:43:13.158Z,92.90
2018-01-27T04:45:42.719Z,92.90
2018-01-27T04:48:12.245Z,92.90
2018-01-27T04:50:40.282Z,93.10
2018-01-27T04:53:10.336Z,93.10
2018-01-27T04:55:41.712Z,93.10
2018-01-27T04:58:12.646Z,93.10
2018-01-27T05:00:41.605Z,93.10
2018-01-27T05:03:11.843Z,93.10
2018-01-27T05:05:42.848Z,93.20
2018-01-27T05:08:12.795Z,93.30
2018-01-27T05:10:42.961Z,93.30
2018-01-27T05:13:12.949Z,93.20
2018-01-27T05:15:41.386Z,93.30
2018-01-27T05:18:11.308Z,93.50
2018-01-27T05:20:41.013Z,93.60
2018-01-27T05:23:11.121Z,93.50
2018-01-27T05:25:41.357Z,93.50
2018-01-27T05:28:11.966Z,93.50
2018-01-27T05:30:41.959Z,93.50
2018-01-27T05:33:13.095Z,93.50
2018-01-27T05:35:41.558Z,93.50
2018-01-27T05:38:11.557Z,93.00
2018-01-27T05:40:42.405Z,92.40
2018-01-27T05:43:11.828Z,92.40
2018-01-27T05:45:41.723Z,92.10
2018-01-27T05:48:12.873Z,92.50
2018-01-27T05:50:41.671Z,92.50
2018-01-27T05:53:11.533Z,92.70
2018-01-27T05:55:41.542Z,92.90
2018-01-27T05:58:11.522Z,93.10
2018-01-27T06:00:41.817Z,93.10
2018-01-27T06:03:11.317Z,92.90
2018-01-27T06:05:40.669Z,92.90
2018-01-27T06:08:12.034Z,92.70
2018-01-27T06:10:41.727Z,92.40
2018-01-27T06:13:11.033Z,92.40
2018-01-27T06:15:38.948Z,93.60
2018-01-27T06:18:11.113Z,93.50
2018-01-27T06:20:39.678Z,93.50
2018-01-27T06:23:09.375Z,93.40
2018-01-27T06:25:38.977Z,93.90
2018-01-27T06:28:07.436Z,94.30
2018-01-27T06:30:35.383Z,94.60
2018-01-27T06:33:02.801Z,94.70
2018-01-27T06:35:29.870Z,94.60
2018-01-27T06:37:56.821Z,94.80
2018-01-27T06:40:23.641Z,94.80
2018-01-27T06:42:50.870Z,95.00
2018-01-27T06:45:17.661Z,95.00
2018-01-27T06:47:44.905Z,94.70
2018-01-27T06:50:11.920Z,95.00
2018-01-27T06:52:38.851Z,95.00
2018-01-27T06:55:06.201Z,95.00
2018-01-27T06:57:33.021Z,94.80
2018-01-27T06:59:59.569Z,94.70
2018-01-27T07:02:26.165Z,94.90
2018-01-27T07:04:52.733Z,94.60
2018-01-27T07:07:19.260Z,94.60
2018-01-27T07:09:45.893Z,94.80
2018-01-27T07:12:14.097Z,94.60
2018-01-27T07:14:40.929Z,94.70
2018-01-27T07:17:08.488Z,94.30
2018-01-27T07:19:35.271Z,94.20
2018-01-27T07:22:01.992Z,93.90
2018-01-27T07:24:29.038Z,94.40
2018-01-27T07:26:58.683Z,94.40
2018-01-27T07:29:25.489Z,94.30
2018-01-27T07:31:52.050Z,94.30
2018-01-27T07:34:18.792Z,94.40
2018-01-27T07:36:45.366Z,94.30
2018-01-27T07:39:11.992Z,94.20
2018-01-27T07:41:38.685Z,94.10
2018-01-27T07:44:05.396Z,94.10
2018-01-27T07:46:32.546Z,94.60
2018-01-27T07:48:59.605Z,94.60
2018-01-27T07:51:26.141Z,94.70
2018-01-27T07:53:52.714Z,94.30
2018-01-27T07:56:19.288Z,93.90
2018-01-27T07:58:46.257Z,95.40
2018-01-27T08:01:13.289Z,94.90
2018-01-27T08:03:40.491Z,95.40
2018-01-27T08:06:07.376Z,95.40
2018-01-27T08:08:34.017Z,95.40
2018-01-27T08:11:01.057Z,94.80
2018-01-27T08:13:27.591Z,94.90
2018-01-27T08:15:54.169Z,95.00
2018-01-27T08:18:20.752Z,94.30
2018-01-27T08:20:47.325Z,94.10
2018-01-27T08:23:14.310Z,94.10
2018-01-27T08:25:41.082Z,94.10
2018-01-27T08:28:07.732Z,94.30
2018-01-27T08:30:34.897Z,94.40
2018-01-27T08:33:01.884Z,94.90
2018-01-27T08:35:28.513Z,94.90
2018-01-27T08:37:55.100Z,94.80
2018-01-27T08:40:22.054Z,95.00
2018-01-27T08:42:48.969Z,95.00
2018-01-27T08:45:15.656Z,95.00
2018-01-27T08:47:43.189Z,96.20
2018-01-27T08:50:10.163Z,96.20
2018-01-27T08:52:36.997Z,96.40
2018-01-27T08:55:03.689Z,96.70
2018-01-27T08:57:30.642Z,96.50
2018-01-27T08:59:57.297Z,96.50
2018-01-27T09:02:23.961Z,96.40
2018-01-27T09:04:50.500Z,96.10
2018-01-27T09:07:17.448Z,95.60
2018-01-27T09:09:44.412Z,95.30
2018-01-27T09:12:11.017Z,95.30
2018-01-27T09:14:37.745Z,94.90
2018-01-27T09:17:04.385Z,95.50
2018-01-27T09:19:31.289Z,95.30
2018-01-27T09:21:57.957Z,95.40
2018-01-27T09:24:24.620Z,95.50
2018-01-27T09:26:51.140Z,95.70
2018-01-27T09:29:17.721Z,95.80
2018-01-27T09:31:44.385Z,95.70
2018-01-27T09:34:11.128Z,95.80
2018-01-27T09:36:37.884Z,95.80
2018-01-27T09:39:04.644Z,95.50
2018-01-27T09:41:31.240Z,95.00
2018-01-27T09:43:57.873Z,95.00
2018-01-27T09:46:24.504Z,94.30
2018-01-27T09:48:51.567Z,94.10
2018-01-27T09:51:18.600Z,94.90
2018-01-27T09:53:45.370Z,95.30
2018-01-27T09:56:11.964Z,94.90
2018-01-27T09:58:38.560Z,94.60
2018-01-27T10:01:05.225Z,94.60
2018-01-27T10:03:32.201Z,93.90
2018-01-27T10:05:58.800Z,93.60
2018-01-27T10:08:25.569Z,93.10
2018-01-27T10:10:52.576Z,93.10
2018-01-27T10:13:20.186Z,92.40
2018-01-27T10:15:47.225Z,92.10
2018-01-27T10:18:14.153Z,91.70
2018-01-27T10:20:41.313Z,92.60
2018-01-27T10:23:07.976Z,92.60
2018-01-27T10:25:34.941Z,92.40
2018-01-27T10:28:01.884Z,92.60
2018-01-27T10:30:28.515Z,92.60
2018-01-27T10:32:55.134Z,92.60
2018-01-27T10:35:22.273Z,91.80
2018-01-27T10:37:49.424Z,92.00
2018-01-27T10:40:16.486Z,92.00
2018-01-27T10:42:43.493Z,92.40
2018-01-27T10:45:10.265Z,92.30
2018-01-27T10:47:36.796Z,92.30
2018-01-27T10:50:03.403Z,92.00
2018-01-27T10:52:30.014Z,91.70
2018-01-27T10:54:56.569Z,91.70
2018-01-27T10:57:23.234Z,90.90
2018-01-27T10:59:50.306Z,91.20
2018-01-27T11:02:17.664Z,92.10
2018-01-27T11:04:44.426Z,92.80
2018-01-27T11:07:11.037Z,92.50
2018-01-27T11:09:37.961Z,91.90
2018-01-27T11:12:04.546Z,91.80
2018-01-27T11:14:31.481Z,91.10
2018-01-27T11:16:58.025Z,91.10
2018-01-27T11:19:24.625Z,90.60
2018-01-27T11:21:51.409Z,90.70
2018-01-27T11:24:20.399Z,90.90
2018-01-27T11:26:47.352Z,90.90
2018-01-27T11:29:14.570Z,91.60
2018-01-27T11:31:41.544Z,91.80
2018-01-27T11:34:08.846Z,91.80
2018-01-27T11:36:35.433Z,91.50
2018-01-27T11:39:02.477Z,90.70
2018-01-27T11:41:29.068Z,90.70
2018-01-27T11:43:55.678Z,90.60
2018-01-27T11:46:22.265Z,90.70
2018-01-27T11:48:48.950Z,91.10
2018-01-27T11:51:15.558Z,91.10
2018-01-27T11:53:42.217Z,90.90
2018-01-27T11:56:08.925Z,90.40
2018-01-27T11:58:35.488Z,90.40
2018-01-27T12:01:02.062Z,90.20
2018-01-27T12:03:28.689Z,89.70
2018-01-27T12:05:55.297Z,89.70
2018-01-27T12:08:21.944Z,89.70
2018-01-27T12:10:48.758Z,90.30
2018-01-27T12:13:22.285Z,90.40
2018-01-27T12:15:49.014Z,90.60
2018-01-27T12:18:15.685Z,91.20
2018-01-27T12:20:42.329Z,91.30
2018-01-27T12:23:09.013Z,91.10
2018-01-27T12:25:35.604Z,91.30
2018-01-27T12:28:02.549Z,91.30
2018-01-27T12:30:29.121Z,91.30
2018-01-27T12:32:55.781Z,90.40
2018-01-27T12:35:22.503Z,90.50
2018-01-27T12:37:49.755Z,90.20
2018-01-27T12:40:17.078Z,90.20
2018-01-27T12:42:43.760Z,90.20
2018-01-27T12:45:10.402Z,90.00
2018-01-27T12:47:36.972Z,90.30
2018-01-27T12:50:03.553Z,90.20
2018-01-27T12:52:30.233Z,90.40
2018-01-27T12:54:56.865Z,90.30
2018-01-27T12:57:23.446Z,91.20
2018-01-27T12:59:50.170Z,90.70
2018-01-27T13:02:17.093Z,90.10
2018-01-27T13:04:43.730Z,89.80
2018-01-27T13:07:10.407Z,90.20
2018-01-27T13:09:37.009Z,90.00
2018-01-27T13:12:03.557Z,90.10
2018-01-27T13:14:30.124Z,90.30
2018-01-27T13:16:56.705Z,90.50
2018-01-27T13:19:23.354Z,90.60
2018-01-27T13:21:50.161Z,90.90
2018-01-27T13:24:17.193Z,90.50
2018-01-27T13:26:43.861Z,91.10
2018-01-27T13:29:10.473Z,90.70
2018-01-27T13:31:37.054Z,91.00
2018-01-27T13:34:03.769Z,90.80
2018-01-27T13:36:30.361Z,91.10
2018-01-27T13:38:56.956Z,90.80
2018-01-27T13:41:23.576Z,90.80
2018-01-27T13:43:50.543Z,91.00
2018-01-27T13:46:17.432Z,90.30
2018-01-27T13:48:44.452Z,89.90
2018-01-27T13:51:11.505Z,89.40
2018-01-27T13:53:38.461Z,89.60
2018-01-27T13:56:05.382Z,89.40
2018-01-27T13:58:31.984Z,89.50
2018-01-27T14:00:58.549Z,89.60
2018-01-27T14:03:25.193Z,89.30
2018-01-27T14:05:52.173Z,89.00
2018-01-27T14:08:19.095Z,88.90
2018-01-27T14:10:45.953Z,89.50
2018-01-27T14:13:12.764Z,89.30
2018-01-27T14:15:39.382Z,89.50
2018-01-27T14:18:05.940Z,89.80
2018-01-27T14:20:32.522Z,89.60
2018-01-27T14:22:59.464Z,89.60
2018-01-27T14:25:26.181Z,89.60
2018-01-27T14:27:52.846Z,89.80
2018-01-27T14:30:19.604Z,89.60
2018-01-27T14:32:46.330Z,89.30
2018-01-27T14:35:13.161Z,89.40
2018-01-27T14:37:39.772Z,89.70
2018-01-27T14:40:06.726Z,89.90
2018-01-27T14:42:33.293Z,89.90
2018-01-27T14:45:07.157Z,89.60
2018-01-27T14:47:33.720Z,89.60
2018-01-27T14:50:00.288Z,89.70
2018-01-27T14:52:26.837Z,89.60
2018-01-27T14:54:53.584Z,89.60
2018-01-27T14:57:20.694Z,90.10
2018-01-27T14:59:47.341Z,90.10
2018-01-27T15:02:13.913Z,90.10
2018-01-27T15:04:40.568Z,90.20
2018-01-27T15:07:07.120Z,90.00
2018-01-27T15:09:33.705Z,90.20
2018-01-27T15:12:00.641Z,90.40
2018-01-27T15:14:27.172Z,90.40
2018-01-27T15:16:53.794Z,90.20
2018-01-27T15:19:20.404Z,90.20
2018-01-27T15:21:47.061Z,90.20
2018-01-27T15:24:13.753Z,90.50
2018-01-27T15:26:40.465Z,90.40
2018-01-27T15:29:07.028Z,90.30
2018-01-27T15:31:33.597Z,90.40
2018-01-27T15:34:00.165Z,90.70
2018-01-27T15:36:26.716Z,90.90
2018-01-27T15:38:53.342Z,91.00
2018-01-27T15:41:20.193Z,91.40
2018-01-27T15:43:46.920Z,91.30
2018-01-27T15:46:13.655Z,91.70
2018-01-27T15:48:40.276Z,91.60
2018-01-27T15:51:07.217Z,91.70
2018-01-27T15:53:33.796Z,91.70
2018-01-27T15:56:00.389Z,91.70
2018-01-27T15:58:26.917Z,91.70
2018-01-27T16:00:53.563Z,91.90
2018-01-27T16:03:20.266Z,92.20
2018-01-27T16:05:47.323Z,92.40
2018-01-27T16:08:13.913Z,92.40
2018-01-27T16:10:40.868Z,92.60
2018-01-27T16:13:07.396Z,92.60
2018-01-27T16:15:33.983Z,92.60
2018-01-27T16:18:00.552Z,92.50
2018-01-27T16:20:27.094Z,92.50
2018-01-27T16:22:53.743Z,92.60
2018-01-27T16:25:20.710Z,92.70
2018-01-27T16:27:47.590Z,92.90
2018-01-27T16:30:14.293Z,92.60
2018-01-27T16:32:41.385Z,92.40
2018-01-27T16:35:07.945Z,92.50
2018-01-27T16:37:34.613Z,92.50
2018-01-27T16:40:01.217Z,92.50
2018-01-27T16:42:27.781Z,92.20
2018-01-27T16:44:54.369Z,92.20
2018-01-27T16:47:21.156Z,92.20
2018-01-27T16:49:54.733Z,92.10
2018-01-27T16:52:21.449Z,92.20
2018-01-27T16:54:48.089Z,92.30
2018-01-27T16:57:22.167Z,92.20
2018-01-27T16:59:48.817Z,92.30
2018-01-27T17:02:15.462Z,92.60
2018-01-27T17:04:42.474Z,92.50
2018-01-27T17:07:09.676Z,92.50
2018-01-27T17:09:36.306Z,92.60
2018-01-27T17:12:02.917Z,92.60
2018-01-27T17:14:29.853Z,92.50
2018-01-27T17:16:56.389Z,92.50
2018-01-27T17:19:23.313Z,92.20
2018-01-27T17:21:49.928Z,92.20
2018-01-27T17:24:16.555Z,92.00
2018-01-27T17:26:43.142Z,92.10
2018-01-27T17:29:10.507Z,92.20
2018-01-27T17:31:37.510Z,92.20
2018-01-27T17:34:04.641Z,92.20
2018-01-27T17:36:31.230Z,92.20
2018-01-27T17:38:57.773Z,92.00
2018-01-27T17:41:24.927Z,92.00
2018-01-27T17:43:51.602Z,91.90
2018-01-27T17:46:18.217Z,91.90
2018-01-27T17:48:44.792Z,92.00
2018-01-27T17:51:11.389Z,92.00
2018-01-27T17:53:38.005Z,92.10
2018-01-27T17:56:04.961Z,92.40
2018-01-27T17:58:31.580Z,92.40
2018-01-27T18:00:58.161Z,92.50
2018-01-27T18:03:24.753Z,92.30
2018-01-27T18:05:51.409Z,92.20
2018-01-27T18:08:18.008Z,92.40
2018-01-27T18:10:45.002Z,92.50
2018-01-27T18:13:12.315Z,92.60
2018-01-27T18:15:40.017Z,92.60
2018-01-27T18:18:07.342Z,92.70
2018-01-27T18:20:33.929Z,92.70
2018-01-27T18:23:01.453Z,92.70
2018-01-27T18:25:29.010Z,92.70
2018-01-27T18:27:55.585Z,92.70
2018-01-27T18:30:22.441Z,92.40
2018-01-27T18:32:50.015Z,92.60
2018-01-27T18:35:17.445Z,92.80
2018-01-27T18:37:44.094Z,93.00
2018-01-27T18:40:10.745Z,92.70
2018-01-27T18:42:38.249Z,92.70
2018-01-27T18:45:04.973Z,92.70
2018-01-27T18:47:31.632Z,92.70
2018-01-27T18:49:58.489Z,92.20
2018-01-27T18:52:25.025Z,91.90
2018-01-27T18:54:51.617Z,91.90
2018-01-27T18:57:18.608Z,92.10
2018-01-27T18:59:46.017Z,91.80
2018-01-27T19:02:12.686Z,92.20
2018-01-27T19:04:39.346Z,92.20
2018-01-27T19:07:05.877Z,92.10
2018-01-27T19:09:32.491Z,92.20
2018-01-27T19:11:59.062Z,92.20
2018-01-27T19:14:25.620Z,91.70
2018-01-27T19:16:52.217Z,91.90
2018-01-27T19:19:18.950Z,92.10
2018-01-27T19:21:45.510Z,92.60
2018-01-27T19:24:12.253Z,92.80
2018-01-27T19:26:39.341Z,92.00
2018-01-27T19:29:05.900Z,92.00
2018-01-27T19:31:32.469Z,92.10
2018-01-27T19:33:59.076Z,91.70
2018-01-27T19:36:25.625Z,91.50
2018-01-27T19:38:52.314Z,91.50
2018-01-27T19:41:19.015Z,91.80
2018-01-27T19:43:46.093Z,92.00
2018-01-27T19:46:12.730Z,92.00
2018-01-27T19:48:39.369Z,92.10
2018-01-27T19:51:05.922Z,92.20
2018-01-27T19:53:32.493Z,92.30
2018-01-27T19:55:59.065Z,92.80
2018-01-27T19:58:26.220Z,92.80
2018-01-27T20:00:53.041Z,93.00
2018-01-27T20:03:19.685Z,93.10
2018-01-27T20:05:46.307Z,93.20
2018-01-27T20:08:13.261Z,93.20
2018-01-27T20:10:39.946Z,93.20
2018-01-27T20:13:06.488Z,93.40
2018-01-27T20:15:33.901Z,93.30
2018-01-27T20:18:00.485Z,93.30
2018-01-27T20:20:27.401Z,93.30
2018-01-27T20:22:53.989Z,93.30
2018-01-27T20:25:20.773Z,93.30
2018-01-27T20:27:47.459Z,93.20
2018-01-27T20:30:14.430Z,93.20
2018-01-27T20:32:41.054Z,93.20
2018-01-27T20:35:08.089Z,93.40
2018-01-27T20:37:34.737Z,93.40
2018-01-27T20:40:01.306Z,93.10
2018-01-27T20:42:27.877Z,92.90
2018-01-27T20:44:56.312Z,92.90
2018-01-27T20:47:22.944Z,93.00
2018-01-27T20:49:49.707Z,93.00
2018-01-27T20:52:17.398Z,93.00
2018-01-27T20:54:44.414Z,93.00
2018-01-27T20:57:10.997Z,93.00
2018-01-27T20:59:37.618Z,93.10
2018-01-27T21:02:04.577Z,92.60
2018-01-27T21:04:31.680Z,92.60
2018-01-27T21:06:58.288Z,92.60
2018-01-27T21:09:26.065Z,92.60
2018-01-27T21:11:53.137Z,92.60
2018-01-27T21:14:20.061Z,92.60
2018-01-27T21:16:46.728Z,92.50
2018-01-27T21:19:13.485Z,92.70
2018-01-27T21:21:41.808Z,92.70
2018-01-27T21:24:08.493Z,92.80
2018-01-27T21:26:35.188Z,92.70
2018-01-27T21:29:01.820Z,92.80
2018-01-27T21:31:28.392Z,93.00
2018-01-27T21:33:55.010Z,93.00
2018-01-27T21:36:21.661Z,92.80
2018-01-27T21:38:48.693Z,92.70
2018-01-27T21:41:15.346Z,92.70
2018-01-27T21:43:42.421Z,93.30
2018-01-27T21:46:09.045Z,93.30
2018-01-27T21:48:36.660Z,93.40
2018-01-27T21:51:03.266Z,93.10
2018-01-27T21:53:29.920Z,93.10
2018-01-27T21:55:56.460Z,93.20
2018-01-27T21:58:23.357Z,93.20
2018-01-27T22:00:50.065Z,93.60
2018-01-27T22:03:17.223Z,93.60
2018-01-27T22:05:43.817Z,93.50
2018-01-27T22:08:11.209Z,93.60
2018-01-27T22:10:37.740Z,93.50
2018-01-27T22:13:04.309Z,93.60
2018-01-27T22:15:30.952Z,93.60
2018-01-27T22:17:57.484Z,93.40
2018-01-27T22:20:24.161Z,93.50
2018-01-27T22:22:50.958Z,93.50
2018-01-27T22:25:17.716Z,93.40
2018-01-27T22:27:44.365Z,93.50
2018-01-27T22:30:11.377Z,93.40
2018-01-27T22:32:38.009Z,93.40
2018-01-27T22:35:04.570Z,93.50
2018-01-27T22:37:31.149Z,93.30
2018-01-27T22:39:57.692Z,93.20
2018-01-27T22:42:24.431Z,92.90
2018-01-27T22:44:51.078Z,93.10
2018-01-27T22:47:18.369Z,93.10
2018-01-27T22:49:46.364Z,93.10
2018-01-27T22:52:13.371Z,93.10
2018-01-27T22:54:40.276Z,93.20
2018-01-27T22:57:07.330Z,93.30
2018-01-27T22:59:34.273Z,93.40
2018-01-27T23:02:00.813Z,93.40
2018-01-27T23:04:27.428Z,93.40
2018-01-27T23:06:54.085Z,93.40
2018-01-27T23:09:21.285Z,93.50
2018-01-27T23:11:50.397Z,93.80
2018-01-27T23:14:20.549Z,93.60
2018-01-27T23:16:48.277Z,93.80
2018-01-27T23:19:15.421Z,93.80
2018-01-27T23:21:43.066Z,93.10
2018-01-27T23:24:09.636Z,93.10
2018-01-27T23:26:36.204Z,93.10
2018-01-27T23:29:02.768Z,93.10
2018-01-27T23:31:29.298Z,93.10
2018-01-27T23:33:56.125Z,93.00
2018-01-27T23:36:23.356Z,93.30
2018-01-27T23:38:50.566Z,93.30
2018-01-27T23:41:20.985Z,93.40
2018-01-27T23:43:52.369Z,93.40
2018-01-27T23:46:20.127Z,93.30
2018-01-27T23:48:52.568Z,93.40
2018-01-27T23:51:20.700Z,93.40
2018-01-27T23:53:50.428Z,93.40
2018-01-27T23:56:22.507Z,93.40
2018-01-27T23:58:52.660Z,93.60
